createdAt,value
2023-03-05T00:02:24.196Z,1.27
2023-03-05T00:07:26.655Z,1.30
2023-03-05T00:12:29.780Z,1.34
2023-03-05T00:17:32.428Z,1.35
2023-03-05T00:22:34.802Z,1.31
2023-03-05T00:27:36.508Z,1.29
2023-03-05T00:32:38.255Z,1.23
2023-03-05T00:37:40.114Z,1.19
2023-03-05T00:43:01.926Z,1.07
2023-03-05T00:48:07.071Z,1.00
2023-03-05T00:53:11.022Z,0.93
2023-03-05T00:58:12.821Z,0.89
2023-03-05T01:03:14.476Z,0.91
2023-03-05T01:08:17.081Z,0.93
2023-03-05T01:13:19.440Z,0.98
2023-03-05T01:18:21.343Z,1.01
2023-03-05T01:23:23.533Z,0.99
2023-03-05T01:28:26.352Z,0.92
2023-03-05T01:33:28.124Z,0.90
2023-03-05T01:38:29.840Z,0.92
2023-03-05T01:43:31.639Z,0.94
2023-03-05T01:48:33.417Z,0.98
2023-03-05T01:53:35.867Z,1.03
2023-03-05T01:58:39.934Z,1.08
2023-03-05T02:03:42.440Z,1.16
2023-03-05T02:08:44.190Z,1.23
2023-03-05T02:13:46.234Z,1.24
2023-03-05T02:18:48.266Z,1.10
2023-03-05T02:23:50.053Z,1.09
2023-03-05T02:28:57.200Z,1.17
2023-03-05T02:33:59.027Z,1.26
2023-03-05T02:39:01.191Z,1.36
2023-03-05T02:44:03.149Z,1.41
2023-03-05T02:49:05.576Z,1.46
2023-03-05T02:54:07.463Z,1.49
2023-03-05T02:59:10.142Z,1.45
2023-03-05T03:04:12.113Z,1.44
2023-03-05T03:09:13.890Z,1.38
2023-03-05T03:14:15.678Z,1.41
2023-03-05T03:19:17.367Z,1.40
2023-03-05T03:24:18.990Z,1.39
2023-03-05T03:29:20.681Z,1.42
2023-03-05T03:34:22.551Z,1.44
2023-03-05T03:39:25.558Z,1.43
2023-03-05T03:44:27.509Z,1.37
2023-03-05T03:49:29.297Z,1.30
2023-03-05T03:54:30.964Z,1.21
2023-03-05T03:59:32.633Z,1.18
2023-03-05T04:04:34.337Z,1.15
2023-03-05T04:09:36.080Z,1.16
2023-03-05T04:14:38.077Z,1.15
2023-03-05T04:19:39.821Z,1.14
2023-03-05T04:24:41.672Z,1.10
2023-03-05T04:29:43.485Z,1.06
2023-03-05T04:34:45.322Z,1.03
2023-03-05T04:39:47.115Z,1.03
2023-03-05T04:44:49.861Z,1.09
2023-03-05T04:49:51.722Z,0.93
2023-03-05T04:54:54.574Z,0.75
2023-03-05T04:59:56.430Z,0.59
2023-03-05T05:06:13.794Z,0.47
2023-03-05T05:11:15.425Z,0.42
2023-03-05T05:16:17.270Z,0.32
2023-03-05T05:21:20.412Z,0.24
2023-03-05T05:26:22.202Z,0.22
2023-03-05T05:31:24.028Z,0.23
2023-03-05T05:36:25.852Z,0.22
2023-03-05T05:41:27.474Z,0.21
2023-03-05T05:46:29.257Z,0.26
2023-03-05T05:51:31.104Z,0.35
2023-03-05T05:56:34.014Z,0.31
2023-03-05T06:01:35.730Z,0.27
2023-03-05T06:06:37.509Z,0.36
2023-03-05T06:11:39.268Z,0.54
2023-03-05T06:16:41.141Z,0.72
2023-03-05T06:21:45.729Z,0.88
2023-03-05T06:26:48.672Z,1.04
2023-03-05T06:31:50.419Z,1.25
2023-03-05T06:36:52.165Z,1.43
2023-03-05T06:41:53.800Z,1.61
2023-03-05T06:46:55.493Z,1.68
2023-03-05T06:51:57.170Z,1.72
2023-03-05T06:56:59.117Z,1.82
2023-03-05T07:02:00.887Z,1.89
2023-03-05T07:07:02.630Z,1.95
2023-03-05T07:12:04.771Z,2.06
2023-03-05T07:17:06.895Z,2.17
2023-03-05T07:22:08.822Z,2.31
2023-03-05T07:27:10.651Z,2.41
2023-03-05T07:32:12.413Z,2.56
2023-03-05T07:37:14.456Z,2.67
2023-03-05T07:42:16.255Z,2.82
2023-03-05T07:47:25.369Z,2.94
2023-03-05T07:52:27.094Z,3.05
2023-03-05T07:57:29.186Z,3.21
2023-03-05T08:02:31.132Z,3.42
2023-03-05T08:07:33.084Z,3.65
2023-03-05T08:12:34.919Z,3.78
2023-03-05T08:17:36.652Z,3.92
2023-03-05T08:22:38.538Z,3.92
2023-03-05T08:27:42.960Z,3.85
2023-03-05T08:32:45.119Z,3.89
2023-03-05T08:37:48.211Z,3.95
2023-03-05T08:42:51.985Z,3.94
2023-03-05T08:47:56.275Z,4.03
2023-03-05T08:52:58.214Z,4.15
2023-03-05T08:58:00.056Z,4.24
2023-03-05T09:03:02.020Z,4.15
2023-03-05T09:08:03.868Z,4.03
2023-03-05T09:13:05.679Z,4.02
2023-03-05T09:18:09.044Z,3.78
2023-03-05T09:23:10.734Z,3.35
2023-03-05T09:28:12.386Z,3.08
2023-03-05T09:33:14.271Z,2.73
2023-03-05T09:38:16.038Z,2.38
2023-03-05T09:43:33.127Z,2.24
2023-03-05T09:48:56.444Z,2.13
2023-03-05T09:54:04.727Z,2.07
2023-03-05T09:59:28.927Z,1.90
2023-03-05T10:04:44.559Z,1.84
2023-03-05T10:09:57.942Z,1.90
2023-03-05T10:15:03.150Z,1.83
2023-03-05T10:20:22.639Z,1.78
2023-03-05T10:25:36.630Z,1.66
2023-03-05T10:30:58.667Z,1.50
2023-03-05T10:36:11.612Z,1.40
2023-03-05T10:41:42.597Z,1.49
2023-03-05T10:46:46.089Z,1.65
2023-03-05T10:51:59.363Z,1.81
2023-03-05T10:57:19.671Z,1.95
2023-03-05T11:02:23.755Z,2.14
2023-03-05T11:07:25.569Z,2.17
2023-03-05T11:12:29.021Z,2.21
2023-03-05T11:17:45.841Z,2.36
2023-03-05T11:23:10.720Z,2.64
2023-03-05T11:28:31.964Z,2.61
2023-03-05T11:33:37.001Z,2.41
2023-03-05T11:39:07.873Z,2.28
2023-03-05T11:44:14.674Z,1.98
2023-03-05T11:49:24.221Z,1.80
2023-03-05T11:54:39.262Z,1.64
2023-03-05T11:59:41.753Z,1.58
2023-03-05T12:04:43.547Z,1.82
2023-03-05T12:09:49.591Z,2.62
2023-03-05T12:14:51.493Z,3.31
2023-03-05T12:20:13.047Z,3.61
2023-03-05T12:25:35.145Z,3.77
2023-03-05T12:30:36.996Z,3.79
2023-03-05T12:35:41.195Z,3.92
2023-03-05T12:40:43.113Z,3.69
2023-03-05T12:46:24.824Z,3.29
2023-03-05T12:51:34.681Z,2.78
2023-03-05T12:56:45.026Z,2.65
2023-03-05T13:02:03.839Z,2.83
2023-03-05T13:07:13.564Z,2.93
2023-03-05T13:12:15.435Z,2.85
2023-03-05T13:17:32.843Z,2.86
2023-03-05T13:22:34.896Z,3.03
2023-03-05T13:27:36.662Z,3.21
2023-03-05T13:32:39.684Z,3.34
2023-03-05T13:37:44.141Z,3.26
2023-03-05T13:42:46.317Z,3.01
2023-03-05T13:48:03.104Z,2.99
2023-03-05T13:53:19.459Z,2.78
2023-03-05T13:58:49.665Z,2.56
2023-03-05T14:03:57.605Z,2.52
2023-03-05T14:09:06.519Z,2.43
2023-03-05T14:14:16.764Z,2.40
2023-03-05T14:19:39.258Z,2.45
2023-03-05T14:24:52.284Z,2.50
2023-03-05T14:29:54.476Z,2.57
2023-03-05T14:34:58.426Z,2.60
2023-03-05T14:40:05.340Z,2.61
2023-03-05T14:45:16.784Z,2.53
2023-03-05T14:50:33.441Z,2.44
2023-03-05T14:55:38.378Z,2.23
2023-03-05T15:00:41.374Z,2.07
2023-03-05T15:05:46.073Z,2.04
2023-03-05T15:10:48.975Z,2.01
2023-03-05T15:15:52.466Z,1.98
2023-03-05T15:20:54.994Z,1.95
2023-03-05T15:25:56.987Z,1.95
2023-03-05T15:31:00.237Z,1.90
2023-03-05T15:36:03.019Z,1.87
2023-03-05T15:41:06.427Z,1.76
2023-03-05T15:46:08.295Z,1.62
2023-03-05T15:51:11.531Z,1.55
2023-03-05T15:56:19.737Z,1.55
2023-03-05T16:01:23.373Z,1.54
2023-03-05T16:06:25.929Z,1.52
2023-03-05T16:11:28.826Z,1.54
2023-03-05T16:16:32.365Z,1.60
2023-03-05T16:21:34.351Z,1.62
2023-03-05T16:26:37.787Z,1.66
2023-03-05T16:31:41.564Z,1.62
2023-03-05T16:36:52.705Z,1.58
2023-03-05T16:41:54.813Z,1.48
2023-03-05T16:46:56.653Z,1.41
2023-03-05T16:52:08.975Z,1.28
2023-03-05T16:57:24.878Z,1.04
2023-03-05T17:02:27.135Z,0.87
2023-03-05T17:07:28.950Z,0.75
2023-03-05T17:12:30.663Z,0.71
2023-03-05T17:17:33.172Z,0.66
2023-03-05T17:22:35.432Z,0.45
2023-03-05T17:27:37.543Z,0.30
2023-03-05T17:32:41.466Z,0.21
2023-03-05T17:37:43.362Z,0.19
2023-03-05T17:42:45.217Z,0.31
2023-03-05T17:47:47.020Z,0.45
2023-03-05T17:52:49.124Z,0.53
2023-03-05T17:57:51.510Z,0.58
2023-03-05T18:02:54.848Z,0.57
2023-03-05T18:07:56.658Z,0.66
2023-03-05T18:12:59.399Z,0.72
2023-03-05T18:18:01.534Z,0.81
2023-03-05T18:23:05.514Z,0.86
2023-03-05T18:28:10.140Z,0.88
2023-03-05T18:33:25.547Z,0.88
2023-03-05T18:38:29.573Z,0.82
2023-03-05T18:43:31.952Z,0.79
2023-03-05T18:48:33.729Z,0.78
2023-03-05T18:53:35.462Z,0.79
2023-03-05T18:58:37.792Z,0.85
2023-03-05T19:03:39.658Z,0.78
2023-03-05T19:08:41.983Z,0.76
2023-03-05T19:13:49.121Z,0.76
2023-03-05T19:19:08.929Z,0.79
2023-03-05T19:24:15.619Z,0.85
2023-03-05T19:29:17.515Z,0.89
2023-03-05T19:34:20.756Z,0.93
2023-03-05T19:39:22.487Z,0.97
2023-03-05T19:44:24.553Z,0.93
2023-03-05T19:49:26.532Z,0.85
2023-03-05T19:54:28.417Z,0.84
2023-03-05T19:59:30.227Z,0.73
2023-03-05T20:04:31.962Z,0.70
2023-03-05T20:09:33.715Z,0.69
2023-03-05T20:14:35.419Z,0.85
2023-03-05T20:19:38.277Z,1.07
2023-03-05T20:24:39.990Z,1.22
2023-03-05T20:29:42.101Z,1.32
2023-03-05T20:34:43.767Z,1.39
2023-03-05T20:39:45.368Z,1.41
2023-03-05T20:44:47.156Z,1.45
2023-03-05T20:49:48.940Z,1.51
2023-03-05T20:54:50.577Z,1.54
2023-03-05T20:59:52.266Z,1.56
2023-03-05T21:04:54.126Z,1.60
2023-03-05T21:09:55.896Z,1.62
2023-03-05T21:14:57.947Z,1.56
2023-03-05T21:20:00.918Z,1.57
2023-03-05T21:25:21.206Z,1.54
2023-03-05T21:30:23.614Z,1.55
2023-03-05T21:35:25.443Z,1.56
2023-03-05T21:40:27.979Z,1.62
2023-03-05T21:45:30.664Z,1.72
2023-03-05T21:50:33.756Z,1.80
2023-03-05T21:56:26.418Z,1.79
2023-03-05T22:01:28.269Z,1.78
2023-03-05T22:06:31.612Z,1.85
2023-03-05T22:11:34.484Z,1.83
2023-03-05T22:16:36.783Z,1.51
2023-03-05T22:21:38.529Z,1.36
2023-03-05T22:26:41.532Z,1.32
2023-03-05T22:31:44.707Z,1.42
2023-03-05T22:36:46.460Z,1.56
2023-03-05T22:41:52.175Z,1.65
2023-03-05T22:46:54.792Z,1.67
2023-03-05T22:51:58.820Z,1.67
2023-03-05T22:57:00.432Z,1.70
2023-03-05T23:02:02.231Z,1.72
2023-03-05T23:07:04.175Z,1.70
2023-03-05T23:12:06.345Z,1.59
2023-03-05T23:17:08.055Z,1.43
2023-03-05T23:22:12.786Z,1.27
2023-03-05T23:27:16.700Z,1.16
2023-03-05T23:32:18.480Z,1.13
2023-03-05T23:37:20.190Z,1.13
2023-03-05T23:42:21.923Z,1.16
2023-03-05T23:47:23.683Z,1.24
2023-03-05T23:52:25.458Z,1.19
2023-03-05T23:57:27.300Z,1.09
